Meteo Giornale » Osservazioni meteo Bielorussia » Gomel'
ore: 00:00 - Osservazioni Meteo Gomel'
Lat. 52° 31' N Lon. 31° 1' E Alt. 144 metri s.l.m.
18 °C
Sereno
Temp. 24 Ore
12 °C
27 °C
Sud-Est
10.8 Km/h
Dew point 16 °C
Umidità 88 %
Visibilità 7 Km
Il sole sorge alle ore 06:06
Il sole tramonta alle ore 19:45
| Data e Ora | Cielo e Fenomeni | T °C | DP °C | Um. % | Pres. hPa | Vis. km | Vento km/h | |
|---|---|---|---|---|---|---|---|---|
| Oggi h: 00:00 | Sereno | 18 | 16 | 88 | 1016 | 7 | SE 10.8 | |
| Ieri h: 23:00 | Sereno | 19 | 17 | 88 | 1016 | 7 | E/SE 14.4 | |
| Ieri h: 22:00 | Molto Nuvoloso | 20 | 17 | 82 | 1016 | 7 | E/SE 10.8 | |
| Ieri h: 21:00 | Molto Nuvoloso | 21 | 17 | 77 | 1016 | 7 | E/SE 10.8 | |
| Ieri h: 20:00 | Molto Nuvoloso | 23 | 17 | 68 | 1016 | 7 | E 10.8 | |
| Ieri h: 19:30 | Molto Nuvoloso | 24 | 18 | 69 | 1016 | 6 | E/SE 10.8 | |
| Ieri h: 19:00 | Molto Nuvoloso | 24 | 18 | 69 | 1016 | 10 | E 10.8 | |
| Ieri h: 18:30 | Sereno | 25 | 18 | 65 | 1016 | 8 | N 7.2 | |
| Ieri h: 18:00 | Sereno | 25 | 18 | 65 | 1016 | 10 | N 7.2 | |
| Ieri h: 17:30 | Sereno | 27 | 18 | 57 | 1016 | 10 | SE 14.4 | |
| Ieri h: 17:00 | Sereno | 27 | 18 | 57 | 1016 | 10 | SE 10.8 | |
| Ieri h: 16:30 | Sereno | 25 | 18 | 65 | 1017 | 10 | SE 10.8 | |
| Ieri h: 16:00 | Sereno | 25 | 18 | 65 | 1017 | 10 | S/SE 10.8 | |
| Ieri h: 15:30 | Molto Nuvoloso | 25 | 18 | 65 | 1017 | 10 | SE 14.4 | |
| Ieri h: 15:00 | Molto Nuvoloso | 25 | 18 | 65 | 1017 | 10 | S/SE 14.4 | |
| Ieri h: 14:30 | Molto Nuvoloso | 24 | 17 | 64 | 1017 | 10 | S 10.8 | |
| Ieri h: 14:00 | Molto Nuvoloso | 24 | 17 | 64 | 1017 | 10 | S 10.8 | |
| Ieri h: 13:30 | Molto Nuvoloso | 25 | 18 | 65 | 1017 | 10 | S 14.4 | |
| Ieri h: 13:00 | Molto Nuvoloso | 25 | 18 | 65 | 1017 | 10 | SE 14.4 | |
| Ieri h: 12:30 | Molto Nuvoloso | 24 | 17 | 64 | 1018 | 10 | S 14.4 | |
| Ieri h: 12:00 | Molto Nuvoloso | 24 | 17 | 64 | 1018 | 10 | S 10.8 | |
| Ieri h: 11:30 | Nuvoloso | 23 | 18 | 73 | 1018 | 10 | SE 10.8 | |
| Ieri h: 11:00 | Nuvoloso | 23 | 18 | 73 | 1018 | 10 | SE 10.8 | |
| Ieri h: 10:30 | Poco Nuvoloso | 20 | 18 | 88 | 1018 | 10 | SE 10.8 | |
| Ieri h: 10:00 | Poco Nuvoloso | 20 | 18 | 88 | 1018 | 7 | E/SE 10.8 | |
| Ieri h: 09:30 | Foschia | 16 | 16 | 100 | 1018 | 3 | N 7.2 | |
| Ieri h: 09:23 | Foschia | 16 | 16 | 100 | 1018 | 2 | N 7.2 | |
| Ieri h: 09:00 | Nebbia | 16 | 16 | 100 | 1018 | 0.3 | N 7.2 | |
| Ieri h: 08:30 | Nebbia | 14 | 14 | 100 | 1018 | 0.2 | N 7.2 | |
| Ieri h: 08:00 | Nebbia | 14 | 14 | 100 | 1018 | 0.1 | N 7.2 | |
| Ieri h: 07:30 | Nebbia | 13 | 12 | 93 | 1018 | 0.1 | N 7.2 | |
| Ieri h: 07:00 | Nebbia | 13 | 12 | 93 | 1018 | 0.15 | N 7.2 | |
| Ieri h: 06:30 | Nebbia | 12 | 12 | 100 | 1018 | 0.1 | N 7.2 | |
| Ieri h: 06:05 | Nebbia | 12 | 12 | 100 | 1018 | 0.1 | N 7.2 | |
| Ieri h: 06:00 | Nebbia | 12 | 12 | 100 | 1018 | 0.15 | N 7.2 | |
| Ieri h: 05:30 | Nebbia | 12 | 12 | 100 | 1018 | 0.15 | N 3.6 | |
| Ieri h: 05:00 | Nebbia | 12 | 12 | 100 | 1018 | 0.1 | N 3.6 | |
| Ieri h: 04:00 | Nebbia | 13 | 13 | 100 | 1018 | 0.15 | N 3.6 | |
| Ieri h: 03:00 | Nebbia | 13 | 13 | 100 | 1018 | 0.15 | N 3.6 | |
| Ieri h: 02:00 | Nebbia | 14 | 14 | 100 | 1018 | 0.2 | N 3.6 | |



